X  Close Metar Aviation Weather Data     EBBR Brussels Airport
Temperature
2°C Temperature
0°C Dewpoint
87% Humidity



Wind
14 KM/H
9 MPH
4 M/S
8 KTS



190°
South
Current Conditions

Clear Clear
Pressure 995.92 (hPa) - 29.41 (inHg)
Visibility 6.2 (mile) - 10 (km)
Airport
Airport-code EBBR

Location: Brussels Airport
Distance: 14 (km)

Metar:
EBBR 222350Z 19008KT CAVOK 02/00 Q0996 NOSIG

Time: 01-23-2021 00:50 CET